Ana Sayfa
METAR-TAF:

METAR-TAF

Havaalanları :

Kwethluk, Alaska, Amerika Birleşik Devletleri

Enlem: 60-47-25N, Boylam: 161-26-37W, yükseklik: 9 m

Güncel hava durumu gözlemi

Rapor saat 07:56 UTC de 25 dakika önce yapıldı.
Rüzgar kuzeybatıdan 5 kt
Sıcaklık 15°C
Nem 67%
Basınç 1023 hPa
Görüş mesafesi: 14.5 km
Açık gökyüzü

METAR: PFKW 150756Z AUTO 32005KT 9SM CLR 15/09 A3021 RMK AO2 SLP229 T01500094 401940056

Saat: 00:21 (08:21 UTC)


TAF: eksik

4.000'den fazla havaalanı için hava durumu gözlemleri ve tahminleri (METAR ve TAF raporları).

Kullanılabilir istasyonlar harita üzerinde sarı ve kırmızı noktalarla gösterilir.

İstasyonun adını görmek için fareyi noktanın üzerinde gezdirin.

Sonrasında hava gözlem ve tahminlerini görmek için tıklayın.

Haritayı değiştirmek için: yaklaştırmak için siyah artı işaretli yeşil düğmeye ve uzaklaştırmak için de eksi işaretli düğmeye hızla tıklayın; bitişik haritalar için yeşil okları kullanın.


METAR-TAF: